sensor_id;sensor_type;location;lat;lon;timestamp;P1;durP1;ratioP1;P2;durP2;ratioP2
49584;SDS011;35491;49.142;9.210;2022-11-20T00:01:16;17.17;;;12.00;;
49584;SDS011;35491;49.142;9.210;2022-11-20T00:02:22;17.45;;;12.52;;
49584;SDS011;35491;49.142;9.210;2022-11-20T00:03:26;15.05;;;10.82;;
49584;SDS011;35491;49.142;9.210;2022-11-20T00:04:30;15.90;;;11.63;;
49584;SDS011;35491;49.142;9.210;2022-11-20T00:05:34;14.88;;;10.95;;
49584;SDS011;35491;49.142;9.210;2022-11-20T00:06:35;15.10;;;11.27;;
49584;SDS011;35491;49.142;9.210;2022-11-20T00:07:39;15.60;;;11.02;;
49584;SDS011;35491;49.142;9.210;2022-11-20T00:08:41;15.57;;;11.35;;
49584;SDS011;35491;49.142;9.210;2022-11-20T00:09:46;14.75;;;10.68;;
49584;SDS011;35491;49.142;9.210;2022-11-20T00:10:47;17.10;;;12.02;;
49584;SDS011;35491;49.142;9.210;2022-11-20T00:11:52;13.80;;;10.55;;
49584;SDS011;35491;49.142;9.210;2022-11-20T00:12:57;15.90;;;11.43;;
49584;SDS011;35491;49.142;9.210;2022-11-20T00:13:59;17.15;;;12.30;;
49584;SDS011;35491;49.142;9.210;2022-11-20T00:15:04;15.80;;;12.05;;
49584;SDS011;35491;49.142;9.210;2022-11-20T00:16:08;16.33;;;11.23;;
49584;SDS011;35491;49.142;9.210;2022-11-20T00:17:16;14.97;;;11.63;;
49584;SDS011;35491;49.142;9.210;2022-11-20T00:18:18;17.27;;;12.35;;
49584;SDS011;35491;49.142;9.210;2022-11-20T00:19:25;15.10;;;11.52;;
49584;SDS011;35491;49.142;9.210;2022-11-20T00:20:26;15.23;;;10.68;;
49584;SDS011;35491;49.142;9.210;2022-11-20T00:21:32;14.23;;;10.45;;
49584;SDS011;35491;49.142;9.210;2022-11-20T00:22:33;16.10;;;11.43;;
49584;SDS011;35491;49.142;9.210;2022-11-20T00:23:41;17.02;;;11.50;;
49584;SDS011;35491;49.142;9.210;2022-11-20T00:24:43;16.92;;;12.65;;
49584;SDS011;35491;49.142;9.210;2022-11-20T00:25:47;15.63;;;11.35;;
49584;SDS011;35491;49.142;9.210;2022-11-20T00:26:49;15.10;;;11.52;;
49584;SDS011;35491;49.142;9.210;2022-11-20T00:27:54;14.07;;;10.82;;
49584;SDS011;35491;49.142;9.210;2022-11-20T00:28:56;14.30;;;10.55;;
49584;SDS011;35491;49.142;9.210;2022-11-20T00:30:02;13.30;;;9.52;;
49584;SDS011;35491;49.142;9.210;2022-11-20T00:31:04;13.23;;;9.40;;
49584;SDS011;35491;49.142;9.210;2022-11-20T00:32:09;14.05;;;10.45;;
49584;SDS011;35491;49.142;9.210;2022-11-20T00:33:11;14.50;;;11.45;;
49584;SDS011;35491;49.142;9.210;2022-11-20T00:34:15;15.07;;;11.05;;
49584;SDS011;35491;49.142;9.210;2022-11-20T00:35:19;16.80;;;12.15;;
49584;SDS011;35491;49.142;9.210;2022-11-20T00:36:24;16.27;;;11.85;;
49584;SDS011;35491;49.142;9.210;2022-11-20T00:37:29;14.50;;;10.73;;
49584;SDS011;35491;49.142;9.210;2022-11-20T00:38:31;15.45;;;10.85;;
49584;SDS011;35491;49.142;9.210;2022-11-20T00:39:35;13.90;;;10.30;;
49584;SDS011;35491;49.142;9.210;2022-11-20T00:40:39;14.25;;;10.48;;
49584;SDS011;35491;49.142;9.210;2022-11-20T00:41:41;13.90;;;9.65;;
49584;SDS011;35491;49.142;9.210;2022-11-20T00:42:45;13.98;;;9.63;;
49584;SDS011;35491;49.142;9.210;2022-11-20T00:43:46;12.38;;;9.35;;
49584;SDS011;35491;49.142;9.210;2022-11-20T00:44:51;13.80;;;9.75;;
49584;SDS011;35491;49.142;9.210;2022-11-20T00:45:56;15.45;;;11.20;;
49584;SDS011;35491;49.142;9.210;2022-11-20T00:47:00;14.48;;;10.77;;
49584;SDS011;35491;49.142;9.210;2022-11-20T00:48:01;14.60;;;10.48;;
49584;SDS011;35491;49.142;9.210;2022-11-20T00:49:05;13.18;;;9.70;;
49584;SDS011;35491;49.142;9.210;2022-11-20T00:50:08;12.95;;;9.50;;
49584;SDS011;35491;49.142;9.210;2022-11-20T00:51:16;14.00;;;10.38;;
49584;SDS011;35491;49.142;9.210;2022-11-20T00:52:18;14.38;;;10.07;;
49584;SDS011;35491;49.142;9.210;2022-11-20T00:53:23;14.07;;;9.68;;
49584;SDS011;35491;49.142;9.210;2022-11-20T00:54:24;12.57;;;9.18;;
49584;SDS011;35491;49.142;9.210;2022-11-20T00:55:28;15.27;;;10.10;;
49584;SDS011;35491;49.142;9.210;2022-11-20T00:56:30;12.02;;;8.95;;
49584;SDS011;35491;49.142;9.210;2022-11-20T00:57:34;11.10;;;8.35;;
49584;SDS011;35491;49.142;9.210;2022-11-20T00:58:36;12.35;;;8.45;;
49584;SDS011;35491;49.142;9.210;2022-11-20T00:59:42;13.02;;;9.63;;
49584;SDS011;35491;49.142;9.210;2022-11-20T01:00:43;14.10;;;10.43;;
49584;SDS011;35491;49.142;9.210;2022-11-20T01:01:47;14.55;;;10.38;;
49584;SDS011;35491;49.142;9.210;2022-11-20T01:02:49;13.57;;;10.15;;
49584;SDS011;35491;49.142;9.210;2022-11-20T01:03:53;12.95;;;10.35;;
49584;SDS011;35491;49.142;9.210;2022-11-20T01:04:56;14.80;;;10.80;;
49584;SDS011;35491;49.142;9.210;2022-11-20T01:06:01;13.18;;;9.60;;
49584;SDS011;35491;49.142;9.210;2022-11-20T01:07:05;15.07;;;11.00;;
49584;SDS011;35491;49.142;9.210;2022-11-20T01:08:09;13.05;;;10.07;;
49584;SDS011;35491;49.142;9.210;2022-11-20T01:09:12;15.57;;;11.57;;
49584;SDS011;35491;49.142;9.210;2022-11-20T01:10:17;14.57;;;10.68;;
49584;SDS011;35491;49.142;9.210;2022-11-20T01:11:19;17.00;;;12.55;;
49584;SDS011;35491;49.142;9.210;2022-11-20T01:12:26;15.15;;;11.80;;
49584;SDS011;35491;49.142;9.210;2022-11-20T01:13:29;14.98;;;11.13;;
49584;SDS011;35491;49.142;9.210;2022-11-20T01:14:42;14.75;;;11.13;;
49584;SDS011;35491;49.142;9.210;2022-11-20T01:15:44;14.70;;;10.80;;
49584;SDS011;35491;49.142;9.210;2022-11-20T01:16:48;14.07;;;10.18;;
49584;SDS011;35491;49.142;9.210;2022-11-20T01:17:55;13.25;;;10.10;;
49584;SDS011;35491;49.142;9.210;2022-11-20T01:18:57;12.82;;;10.00;;
49584;SDS011;35491;49.142;9.210;2022-11-20T01:20:02;14.50;;;9.85;;
49584;SDS011;35491;49.142;9.210;2022-11-20T01:21:05;13.98;;;10.02;;
49584;SDS011;35491;49.142;9.210;2022-11-20T01:22:13;14.77;;;10.43;;
49584;SDS011;35491;49.142;9.210;2022-11-20T01:23:16;14.35;;;10.45;;
49584;SDS011;35491;49.142;9.210;2022-11-20T01:24:20;14.27;;;10.27;;
49584;SDS011;35491;49.142;9.210;2022-11-20T01:25:25;13.63;;;9.90;;
49584;SDS011;35491;49.142;9.210;2022-11-20T01:26:28;16.35;;;11.30;;
49584;SDS011;35491;49.142;9.210;2022-11-20T01:27:33;18.20;;;12.65;;
49584;SDS011;35491;49.142;9.210;2022-11-20T01:28:34;15.60;;;11.30;;
49584;SDS011;35491;49.142;9.210;2022-11-20T01:29:39;17.92;;;12.57;;
49584;SDS011;35491;49.142;9.210;2022-11-20T01:30:41;16.85;;;12.95;;
49584;SDS011;35491;49.142;9.210;2022-11-20T01:31:45;16.17;;;11.55;;
49584;SDS011;35491;49.142;9.210;2022-11-20T01:32:48;16.38;;;12.20;;
49584;SDS011;35491;49.142;9.210;2022-11-20T01:33:52;16.95;;;11.77;;
49584;SDS011;35491;49.142;9.210;2022-11-20T01:34:55;18.63;;;12.27;;
49584;SDS011;35491;49.142;9.210;2022-11-20T01:36:03;16.08;;;11.75;;
49584;SDS011;35491;49.142;9.210;2022-11-20T01:37:06;15.27;;;10.55;;
49584;SDS011;35491;49.142;9.210;2022-11-20T01:38:12;16.73;;;12.20;;
49584;SDS011;35491;49.142;9.210;2022-11-20T01:39:16;16.83;;;12.40;;
49584;SDS011;35491;49.142;9.210;2022-11-20T01:40:22;14.77;;;11.00;;
49584;SDS011;35491;49.142;9.210;2022-11-20T01:41:27;15.95;;;11.73;;
49584;SDS011;35491;49.142;9.210;2022-11-20T01:42:47;15.85;;;11.90;;
49584;SDS011;35491;49.142;9.210;2022-11-20T01:44:10;17.98;;;13.18;;
49584;SDS011;35491;49.142;9.210;2022-11-20T01:46:52;17.52;;;12.20;;
49584;SDS011;35491;49.142;9.210;2022-11-20T01:49:02;15.15;;;11.05;;
49584;SDS011;35491;49.142;9.210;2022-11-20T01:50:11;15.93;;;11.75;;
49584;SDS011;35491;49.142;9.210;2022-11-20T01:51:19;16.90;;;11.85;;
49584;SDS011;35491;49.142;9.210;2022-11-20T01:52:30;16.45;;;11.80;;
49584;SDS011;35491;49.142;9.210;2022-11-20T01:53:38;14.68;;;10.63;;
49584;SDS011;35491;49.142;9.210;2022-11-20T01:54:43;15.43;;;11.43;;
49584;SDS011;35491;49.142;9.210;2022-11-20T01:55:52;16.17;;;10.73;;
49584;SDS011;35491;49.142;9.210;2022-11-20T01:56:58;14.95;;;10.63;;
49584;SDS011;35491;49.142;9.210;2022-11-20T01:59:12;15.60;;;10.73;;
49584;SDS011;35491;49.142;9.210;2022-11-20T02:00:17;13.93;;;9.75;;
49584;SDS011;35491;49.142;9.210;2022-11-20T02:01:22;12.93;;;9.27;;
49584;SDS011;35491;49.142;9.210;2022-11-20T02:02:25;13.10;;;9.48;;
49584;SDS011;35491;49.142;9.210;2022-11-20T02:03:30;12.65;;;9.50;;
49584;SDS011;35491;49.142;9.210;2022-11-20T02:04:33;13.98;;;10.20;;
49584;SDS011;35491;49.142;9.210;2022-11-20T02:05:38;14.13;;;10.48;;
49584;SDS011;35491;49.142;9.210;2022-11-20T02:06:45;16.70;;;10.38;;
49584;SDS011;35491;49.142;9.210;2022-11-20T02:07:52;14.15;;;10.55;;
49584;SDS011;35491;49.142;9.210;2022-11-20T02:09:00;16.90;;;12.50;;
49584;SDS011;35491;49.142;9.210;2022-11-20T02:10:04;17.33;;;12.10;;
49584;SDS011;35491;49.142;9.210;2022-11-20T02:11:09;16.80;;;12.20;;
49584;SDS011;35491;49.142;9.210;2022-11-20T02:12:13;17.92;;;12.60;;
49584;SDS011;35491;49.142;9.210;2022-11-20T02:13:30;16.40;;;12.10;;
49584;SDS011;35491;49.142;9.210;2022-11-20T02:14:43;15.20;;;10.90;;
49584;SDS011;35491;49.142;9.210;2022-11-20T02:15:48;16.60;;;12.13;;
49584;SDS011;35491;49.142;9.210;2022-11-20T02:16:50;15.77;;;11.38;;
49584;SDS011;35491;49.142;9.210;2022-11-20T02:17:56;14.52;;;10.68;;
49584;SDS011;35491;49.142;9.210;2022-11-20T02:18:58;14.52;;;10.77;;
49584;SDS011;35491;49.142;9.210;2022-11-20T02:20:05;14.95;;;11.20;;
49584;SDS011;35491;49.142;9.210;2022-11-20T02:21:11;14.90;;;10.95;;
49584;SDS011;35491;49.142;9.210;2022-11-20T02:22:23;14.32;;;10.32;;
49584;SDS011;35491;49.142;9.210;2022-11-20T02:23:31;17.02;;;11.82;;
49584;SDS011;35491;49.142;9.210;2022-11-20T02:25:48;13.73;;;9.38;;
49584;SDS011;35491;49.142;9.210;2022-11-20T02:26:57;14.57;;;10.80;;
49584;SDS011;35491;49.142;9.210;2022-11-20T02:28:05;13.65;;;9.88;;
49584;SDS011;35491;49.142;9.210;2022-11-20T02:29:15;13.93;;;9.90;;
49584;SDS011;35491;49.142;9.210;2022-11-20T02:30:22;12.50;;;9.27;;
49584;SDS011;35491;49.142;9.210;2022-11-20T02:31:24;13.90;;;9.50;;
49584;SDS011;35491;49.142;9.210;2022-11-20T02:32:29;13.20;;;9.20;;
49584;SDS011;35491;49.142;9.210;2022-11-20T02:33:32;13.77;;;9.70;;
49584;SDS011;35491;49.142;9.210;2022-11-20T02:34:37;14.63;;;9.57;;
49584;SDS011;35491;49.142;9.210;2022-11-20T02:35:42;13.48;;;10.10;;
49584;SDS011;35491;49.142;9.210;2022-11-20T02:36:50;13.02;;;9.40;;
49584;SDS011;35491;49.142;9.210;2022-11-20T02:37:57;13.70;;;9.63;;
49584;SDS011;35491;49.142;9.210;2022-11-20T02:39:07;13.45;;;9.77;;
49584;SDS011;35491;49.142;9.210;2022-11-20T02:40:15;13.85;;;10.35;;
49584;SDS011;35491;49.142;9.210;2022-11-20T02:41:19;13.98;;;10.23;;
49584;SDS011;35491;49.142;9.210;2022-11-20T02:42:23;14.18;;;9.77;;
49584;SDS011;35491;49.142;9.210;2022-11-20T02:43:25;15.15;;;10.82;;
49584;SDS011;35491;49.142;9.210;2022-11-20T02:44:29;14.98;;;11.55;;
49584;SDS011;35491;49.142;9.210;2022-11-20T02:45:30;15.63;;;11.25;;
49584;SDS011;35491;49.142;9.210;2022-11-20T02:46:34;18.48;;;12.60;;
49584;SDS011;35491;49.142;9.210;2022-11-20T02:47:43;15.32;;;11.23;;
49584;SDS011;35491;49.142;9.210;2022-11-20T02:48:47;16.50;;;12.57;;
49584;SDS011;35491;49.142;9.210;2022-11-20T02:49:52;14.00;;;10.43;;
49584;SDS011;35491;49.142;9.210;2022-11-20T02:50:56;15.35;;;11.40;;
49584;SDS011;35491;49.142;9.210;2022-11-20T02:51:57;12.65;;;9.98;;
49584;SDS011;35491;49.142;9.210;2022-11-20T02:53:01;15.98;;;11.27;;
49584;SDS011;35491;49.142;9.210;2022-11-20T02:54:08;15.95;;;11.70;;
49584;SDS011;35491;49.142;9.210;2022-11-20T02:55:12;15.95;;;11.23;;
49584;SDS011;35491;49.142;9.210;2022-11-20T02:56:18;14.40;;;10.32;;
49584;SDS011;35491;49.142;9.210;2022-11-20T02:57:22;13.98;;;10.43;;
49584;SDS011;35491;49.142;9.210;2022-11-20T02:58:24;14.27;;;10.13;;
49584;SDS011;35491;49.142;9.210;2022-11-20T02:59:28;14.32;;;9.88;;
49584;SDS011;35491;49.142;9.210;2022-11-20T03:00:32;14.05;;;10.05;;
49584;SDS011;35491;49.142;9.210;2022-11-20T03:01:36;14.48;;;10.38;;
49584;SDS011;35491;49.142;9.210;2022-11-20T03:02:41;14.82;;;10.90;;
49584;SDS011;35491;49.142;9.210;2022-11-20T03:03:46;14.32;;;9.82;;
49584;SDS011;35491;49.142;9.210;2022-11-20T03:04:49;14.55;;;10.32;;
49584;SDS011;35491;49.142;9.210;2022-11-20T03:05:53;14.45;;;10.52;;
49584;SDS011;35491;49.142;9.210;2022-11-20T03:07:01;14.90;;;11.10;;
49584;SDS011;35491;49.142;9.210;2022-11-20T03:08:05;13.95;;;10.50;;
49584;SDS011;35491;49.142;9.210;2022-11-20T03:09:07;15.95;;;10.30;;
49584;SDS011;35491;49.142;9.210;2022-11-20T03:10:11;14.45;;;10.73;;
49584;SDS011;35491;49.142;9.210;2022-11-20T03:11:19;16.98;;;11.65;;
49584;SDS011;35491;49.142;9.210;2022-11-20T03:12:24;14.90;;;10.88;;
49584;SDS011;35491;49.142;9.210;2022-11-20T03:13:31;15.48;;;10.43;;
49584;SDS011;35491;49.142;9.210;2022-11-20T03:14:36;15.57;;;10.98;;
49584;SDS011;35491;49.142;9.210;2022-11-20T03:15:45;16.52;;;11.32;;
49584;SDS011;35491;49.142;9.210;2022-11-20T03:16:49;13.75;;;9.98;;
49584;SDS011;35491;49.142;9.210;2022-11-20T03:17:52;15.45;;;11.05;;
49584;SDS011;35491;49.142;9.210;2022-11-20T03:18:57;14.05;;;10.52;;
49584;SDS011;35491;49.142;9.210;2022-11-20T03:21:18;13.93;;;10.32;;
49584;SDS011;35491;49.142;9.210;2022-11-20T03:22:23;12.90;;;9.38;;
49584;SDS011;35491;49.142;9.210;2022-11-20T03:23:28;14.68;;;10.90;;
49584;SDS011;35491;49.142;9.210;2022-11-20T03:24:30;14.90;;;10.90;;
49584;SDS011;35491;49.142;9.210;2022-11-20T03:25:34;14.20;;;11.00;;
49584;SDS011;35491;49.142;9.210;2022-11-20T03:26:44;14.02;;;10.20;;
49584;SDS011;35491;49.142;9.210;2022-11-20T03:27:48;13.25;;;10.02;;
49584;SDS011;35491;49.142;9.210;2022-11-20T03:28:56;13.23;;;10.02;;
49584;SDS011;35491;49.142;9.210;2022-11-20T03:30:02;13.02;;;10.48;;
49584;SDS011;35491;49.142;9.210;2022-11-20T03:31:06;14.80;;;9.90;;
49584;SDS011;35491;49.142;9.210;2022-11-20T03:32:12;13.00;;;9.88;;
49584;SDS011;35491;49.142;9.210;2022-11-20T03:34:32;15.00;;;10.88;;
49584;SDS011;35491;49.142;9.210;2022-11-20T03:35:38;15.05;;;10.93;;
49584;SDS011;35491;49.142;9.210;2022-11-20T03:36:42;15.13;;;10.15;;
49584;SDS011;35491;49.142;9.210;2022-11-20T03:37:45;13.50;;;10.07;;
49584;SDS011;35491;49.142;9.210;2022-11-20T03:38:49;13.43;;;10.27;;
49584;SDS011;35491;49.142;9.210;2022-11-20T03:39:52;13.52;;;9.93;;
49584;SDS011;35491;49.142;9.210;2022-11-20T03:40:58;11.65;;;8.75;;
49584;SDS011;35491;49.142;9.210;2022-11-20T03:42:13;11.40;;;8.80;;
49584;SDS011;35491;49.142;9.210;2022-11-20T03:43:29;12.10;;;9.25;;
49584;SDS011;35491;49.142;9.210;2022-11-20T03:44:34;14.02;;;9.90;;
49584;SDS011;35491;49.142;9.210;2022-11-20T03:45:41;14.48;;;10.45;;
49584;SDS011;35491;49.142;9.210;2022-11-20T03:46:45;14.45;;;10.82;;
49584;SDS011;35491;49.142;9.210;2022-11-20T03:51:18;16.58;;;12.35;;
49584;SDS011;35491;49.142;9.210;2022-11-20T03:52:24;18.80;;;13.30;;
49584;SDS011;35491;49.142;9.210;2022-11-20T03:54:34;16.58;;;11.73;;
49584;SDS011;35491;49.142;9.210;2022-11-20T03:55:35;15.95;;;11.63;;
49584;SDS011;35491;49.142;9.210;2022-11-20T03:56:44;15.82;;;11.55;;
49584;SDS011;35491;49.142;9.210;2022-11-20T04:06:09;14.80;;;11.00;;
49584;SDS011;35491;49.142;9.210;2022-11-20T04:08:37;15.95;;;11.27;;
49584;SDS011;35491;49.142;9.210;2022-11-20T04:09:42;16.50;;;11.52;;
49584;SDS011;35491;49.142;9.210;2022-11-20T04:10:50;16.48;;;11.48;;
49584;SDS011;35491;49.142;9.210;2022-11-20T04:11:55;15.55;;;11.05;;
49584;SDS011;35491;49.142;9.210;2022-11-20T04:12:56;14.63;;;10.77;;
49584;SDS011;35491;49.142;9.210;2022-11-20T04:14:01;14.00;;;10.82;;
49584;SDS011;35491;49.142;9.210;2022-11-20T04:16:11;12.48;;;9.30;;
49584;SDS011;35491;49.142;9.210;2022-11-20T04:18:25;13.32;;;9.52;;
49584;SDS011;35491;49.142;9.210;2022-11-20T04:19:30;14.80;;;10.43;;
49584;SDS011;35491;49.142;9.210;2022-11-20T04:20:32;14.93;;;10.55;;
49584;SDS011;35491;49.142;9.210;2022-11-20T04:22:45;16.00;;;10.05;;
49584;SDS011;35491;49.142;9.210;2022-11-20T04:23:56;14.07;;;9.40;;
49584;SDS011;35491;49.142;9.210;2022-11-20T04:24:58;11.85;;;9.10;;
49584;SDS011;35491;49.142;9.210;2022-11-20T04:26:05;11.82;;;9.15;;
49584;SDS011;35491;49.142;9.210;2022-11-20T04:27:09;11.20;;;8.32;;
49584;SDS011;35491;49.142;9.210;2022-11-20T04:28:14;11.82;;;8.00;;
49584;SDS011;35491;49.142;9.210;2022-11-20T04:29:15;11.18;;;8.73;;
49584;SDS011;35491;49.142;9.210;2022-11-20T04:30:21;10.82;;;8.48;;
49584;SDS011;35491;49.142;9.210;2022-11-20T04:31:24;11.10;;;7.72;;
49584;SDS011;35491;49.142;9.210;2022-11-20T04:32:30;12.13;;;9.20;;
49584;SDS011;35491;49.142;9.210;2022-11-20T04:33:32;11.27;;;8.25;;
49584;SDS011;35491;49.142;9.210;2022-11-20T04:34:37;13.05;;;9.35;;
49584;SDS011;35491;49.142;9.210;2022-11-20T04:35:38;12.73;;;9.10;;
49584;SDS011;35491;49.142;9.210;2022-11-20T04:36:45;11.75;;;8.55;;
49584;SDS011;35491;49.142;9.210;2022-11-20T04:37:47;13.25;;;8.55;;
49584;SDS011;35491;49.142;9.210;2022-11-20T04:38:51;11.88;;;8.68;;
49584;SDS011;35491;49.142;9.210;2022-11-20T04:39:55;11.38;;;8.35;;
49584;SDS011;35491;49.142;9.210;2022-11-20T04:41:01;11.02;;;7.57;;
49584;SDS011;35491;49.142;9.210;2022-11-20T04:42:08;11.98;;;7.88;;
49584;SDS011;35491;49.142;9.210;2022-11-20T04:43:24;11.57;;;8.30;;
49584;SDS011;35491;49.142;9.210;2022-11-20T04:44:29;9.73;;;6.97;;
49584;SDS011;35491;49.142;9.210;2022-11-20T04:45:30;11.07;;;8.18;;
49584;SDS011;35491;49.142;9.210;2022-11-20T04:46:36;11.30;;;8.55;;
49584;SDS011;35491;49.142;9.210;2022-11-20T04:47:39;12.25;;;6.90;;
49584;SDS011;35491;49.142;9.210;2022-11-20T04:48:44;9.18;;;6.88;;
49584;SDS011;35491;49.142;9.210;2022-11-20T04:49:46;11.52;;;7.28;;
49584;SDS011;35491;49.142;9.210;2022-11-20T04:50:51;11.07;;;7.78;;
49584;SDS011;35491;49.142;9.210;2022-11-20T04:52:01;10.45;;;7.22;;
49584;SDS011;35491;49.142;9.210;2022-11-20T04:53:06;10.02;;;7.35;;
49584;SDS011;35491;49.142;9.210;2022-11-20T04:54:08;11.27;;;7.63;;
49584;SDS011;35491;49.142;9.210;2022-11-20T04:55:13;10.40;;;7.68;;
49584;SDS011;35491;49.142;9.210;2022-11-20T04:56:16;12.02;;;7.90;;
49584;SDS011;35491;49.142;9.210;2022-11-20T04:57:20;11.68;;;7.95;;
49584;SDS011;35491;49.142;9.210;2022-11-20T04:58:23;10.73;;;7.57;;
49584;SDS011;35491;49.142;9.210;2022-11-20T04:59:28;8.98;;;7.25;;
49584;SDS011;35491;49.142;9.210;2022-11-20T05:00:34;9.73;;;7.85;;
49584;SDS011;35491;49.142;9.210;2022-11-20T05:01:41;9.43;;;7.20;;
49584;SDS011;35491;49.142;9.210;2022-11-20T05:02:45;11.35;;;8.57;;
49584;SDS011;35491;49.142;9.210;2022-11-20T05:04:08;10.65;;;8.00;;
49584;SDS011;35491;49.142;9.210;2022-11-20T05:06:34;10.02;;;6.47;;
49584;SDS011;35491;49.142;9.210;2022-11-20T05:07:41;9.90;;;7.28;;
49584;SDS011;35491;49.142;9.210;2022-11-20T05:08:44;9.60;;;6.63;;
49584;SDS011;35491;49.142;9.210;2022-11-20T05:09:50;8.98;;;6.20;;
49584;SDS011;35491;49.142;9.210;2022-11-20T05:11:36;9.15;;;5.88;;
49584;SDS011;35491;49.142;9.210;2022-11-20T05:13:37;8.23;;;5.40;;
49584;SDS011;35491;49.142;9.210;2022-11-20T05:46:26;13.35;;;10.10;;
49584;SDS011;35491;49.142;9.210;2022-11-20T05:47:42;13.88;;;9.85;;
49584;SDS011;35491;49.142;9.210;2022-11-20T05:48:46;12.95;;;9.77;;
49584;SDS011;35491;49.142;9.210;2022-11-20T05:49:48;12.57;;;9.57;;
49584;SDS011;35491;49.142;9.210;2022-11-20T05:50:53;12.05;;;8.80;;
49584;SDS011;35491;49.142;9.210;2022-11-20T05:51:54;12.93;;;9.10;;
49584;SDS011;35491;49.142;9.210;2022-11-20T05:52:59;13.10;;;8.63;;
49584;SDS011;35491;49.142;9.210;2022-11-20T05:54:01;11.48;;;8.82;;
49584;SDS011;35491;49.142;9.210;2022-11-20T05:55:17;11.25;;;8.05;;
49584;SDS011;35491;49.142;9.210;2022-11-20T05:56:27;11.55;;;9.18;;
49584;SDS011;35491;49.142;9.210;2022-11-20T05:57:31;11.65;;;8.82;;
49584;SDS011;35491;49.142;9.210;2022-11-20T05:58:49;12.13;;;9.05;;
49584;SDS011;35491;49.142;9.210;2022-11-20T05:59:53;13.70;;;9.23;;
49584;SDS011;35491;49.142;9.210;2022-11-20T06:02:21;10.05;;;7.38;;
49584;SDS011;35491;49.142;9.210;2022-11-20T06:04:51;10.45;;;7.68;;
49584;SDS011;35491;49.142;9.210;2022-11-20T06:07:18;10.60;;;7.40;;
49584;SDS011;35491;49.142;9.210;2022-11-20T06:08:21;9.93;;;7.75;;
49584;SDS011;35491;49.142;9.210;2022-11-20T06:09:26;11.98;;;8.63;;
49584;SDS011;35491;49.142;9.210;2022-11-20T06:10:37;12.07;;;8.73;;
49584;SDS011;35491;49.142;9.210;2022-11-20T06:11:41;12.15;;;8.55;;
49584;SDS011;35491;49.142;9.210;2022-11-20T06:13:56;12.75;;;8.93;;
49584;SDS011;35491;49.142;9.210;2022-11-20T06:14:57;12.52;;;9.73;;
49584;SDS011;35491;49.142;9.210;2022-11-20T06:17:11;14.35;;;11.30;;
49584;SDS011;35491;49.142;9.210;2022-11-20T06:18:15;14.63;;;10.40;;
49584;SDS011;35491;49.142;9.210;2022-11-20T06:20:58;13.43;;;10.13;;
49584;SDS011;35491;49.142;9.210;2022-11-20T06:22:01;13.63;;;10.10;;
49584;SDS011;35491;49.142;9.210;2022-11-20T06:24:38;13.30;;;9.88;;
49584;SDS011;35491;49.142;9.210;2022-11-20T06:25:40;13.85;;;10.38;;
49584;SDS011;35491;49.142;9.210;2022-11-20T06:26:46;13.82;;;10.43;;
49584;SDS011;35491;49.142;9.210;2022-11-20T06:27:48;13.40;;;10.20;;
49584;SDS011;35491;49.142;9.210;2022-11-20T06:28:53;11.50;;;8.82;;
49584;SDS011;35491;49.142;9.210;2022-11-20T06:31:20;11.95;;;8.63;;
49584;SDS011;35491;49.142;9.210;2022-11-20T06:32:28;11.10;;;8.18;;
49584;SDS011;35491;49.142;9.210;2022-11-20T06:33:33;11.15;;;7.97;;
49584;SDS011;35491;49.142;9.210;2022-11-20T06:34:38;10.57;;;7.75;;
49584;SDS011;35491;49.142;9.210;2022-11-20T06:35:45;9.25;;;7.03;;
49584;SDS011;35491;49.142;9.210;2022-11-20T06:36:49;10.40;;;7.47;;
49584;SDS011;35491;49.142;9.210;2022-11-20T06:37:53;9.48;;;6.80;;
49584;SDS011;35491;49.142;9.210;2022-11-20T06:38:57;10.63;;;6.95;;
49584;SDS011;35491;49.142;9.210;2022-11-20T06:40:01;11.93;;;9.18;;
49584;SDS011;35491;49.142;9.210;2022-11-20T06:41:06;20.55;;;13.75;;
49584;SDS011;35491;49.142;9.210;2022-11-20T06:42:11;16.08;;;12.27;;
49584;SDS011;35491;49.142;9.210;2022-11-20T06:43:15;16.45;;;12.02;;
49584;SDS011;35491;49.142;9.210;2022-11-20T06:44:17;14.13;;;10.68;;
49584;SDS011;35491;49.142;9.210;2022-11-20T06:45:22;12.95;;;10.18;;
49584;SDS011;35491;49.142;9.210;2022-11-20T06:46:24;13.27;;;10.10;;
49584;SDS011;35491;49.142;9.210;2022-11-20T06:47:32;14.98;;;10.90;;
49584;SDS011;35491;49.142;9.210;2022-11-20T06:48:35;16.27;;;10.95;;
49584;SDS011;35491;49.142;9.210;2022-11-20T06:49:39;13.00;;;9.75;;
49584;SDS011;35491;49.142;9.210;2022-11-20T06:50:45;13.02;;;9.05;;
49584;SDS011;35491;49.142;9.210;2022-11-20T06:51:47;13.32;;;8.88;;
49584;SDS011;35491;49.142;9.210;2022-11-20T06:52:51;14.63;;;9.95;;
49584;SDS011;35491;49.142;9.210;2022-11-20T06:53:53;13.48;;;9.10;;
49584;SDS011;35491;49.142;9.210;2022-11-20T06:54:58;12.73;;;9.48;;
49584;SDS011;35491;49.142;9.210;2022-11-20T06:56:00;11.43;;;8.35;;
49584;SDS011;35491;49.142;9.210;2022-11-20T06:57:04;9.95;;;7.65;;
49584;SDS011;35491;49.142;9.210;2022-11-20T06:58:06;11.00;;;8.27;;
49584;SDS011;35491;49.142;9.210;2022-11-20T06:59:11;10.05;;;7.63;;
49584;SDS011;35491;49.142;9.210;2022-11-20T07:00:16;10.70;;;7.05;;
49584;SDS011;35491;49.142;9.210;2022-11-20T07:01:21;10.13;;;6.80;;
49584;SDS011;35491;49.142;9.210;2022-11-20T07:02:23;11.20;;;6.85;;
49584;SDS011;35491;49.142;9.210;2022-11-20T07:03:30;9.95;;;6.25;;
49584;SDS011;35491;49.142;9.210;2022-11-20T07:04:33;9.10;;;6.25;;
49584;SDS011;35491;49.142;9.210;2022-11-20T07:05:38;9.52;;;6.25;;
49584;SDS011;35491;49.142;9.210;2022-11-20T07:06:41;8.55;;;6.38;;
49584;SDS011;35491;49.142;9.210;2022-11-20T07:07:55;9.60;;;6.70;;
49584;SDS011;35491;49.142;9.210;2022-11-20T07:08:57;10.80;;;7.18;;
49584;SDS011;35491;49.142;9.210;2022-11-20T07:10:02;9.50;;;6.32;;
49584;SDS011;35491;49.142;9.210;2022-11-20T07:11:05;7.78;;;5.25;;
49584;SDS011;35491;49.142;9.210;2022-11-20T07:12:11;9.45;;;6.00;;
49584;SDS011;35491;49.142;9.210;2022-11-20T07:13:14;9.50;;;6.30;;
49584;SDS011;35491;49.142;9.210;2022-11-20T07:14:19;10.90;;;7.35;;
49584;SDS011;35491;49.142;9.210;2022-11-20T07:15:22;9.40;;;6.72;;
49584;SDS011;35491;49.142;9.210;2022-11-20T07:16:27;9.05;;;6.38;;
49584;SDS011;35491;49.142;9.210;2022-11-20T07:17:32;9.38;;;6.55;;
49584;SDS011;35491;49.142;9.210;2022-11-20T07:18:37;9.27;;;6.22;;
49584;SDS011;35491;49.142;9.210;2022-11-20T07:19:41;9.35;;;6.00;;
49584;SDS011;35491;49.142;9.210;2022-11-20T07:20:43;8.40;;;5.60;;
49584;SDS011;35491;49.142;9.210;2022-11-20T07:21:48;7.15;;;5.03;;
49584;SDS011;35491;49.142;9.210;2022-11-20T07:22:53;7.22;;;5.40;;
49584;SDS011;35491;49.142;9.210;2022-11-20T07:23:58;8.55;;;5.03;;
49584;SDS011;35491;49.142;9.210;2022-11-20T07:26:14;8.40;;;5.10;;
49584;SDS011;35491;49.142;9.210;2022-11-20T07:27:18;6.28;;;4.13;;
49584;SDS011;35491;49.142;9.210;2022-11-20T07:28:28;6.90;;;4.40;;
49584;SDS011;35491;49.142;9.210;2022-11-20T07:29:35;6.60;;;4.55;;
49584;SDS011;35491;49.142;9.210;2022-11-20T07:30:37;7.03;;;3.80;;
49584;SDS011;35491;49.142;9.210;2022-11-20T07:31:42;6.13;;;3.97;;
49584;SDS011;35491;49.142;9.210;2022-11-20T07:32:46;6.18;;;3.20;;
49584;SDS011;35491;49.142;9.210;2022-11-20T07:33:53;4.78;;;2.78;;
49584;SDS011;35491;49.142;9.210;2022-11-20T07:34:58;6.05;;;2.55;;
49584;SDS011;35491;49.142;9.210;2022-11-20T07:37:20;4.78;;;2.42;;